Time;durP1;ratioP1;P1;durP2;ratioP2;P2;SDS_P1;SDS_P2;PMS_P1;PMS_P2;Temp;Humidity;BMP_temperature;BMP_pressure;BME280_temperature;BME280_humidity;BME280_pressure;Samples;Min_cycle;Max_cycle;Signal;HPM_P1;HPM_P2
2023/01/18 00:00:43;;;;;;;0.73;0.73;;;;;;;3.94;74.82;92500.75;4331448;32;20282;-60
2023/01/18 00:03:10;;;;;;;1.43;1.33;;;;;;;4.07;74.42;92502.34;4331185;32;20292;-60
2023/01/18 00:05:39;;;;;;;14.33;1.23;;;;;;;3.86;74.76;92506.84;4331660;33;20213;-60
2023/01/18 00:08:14;;;;;;;0.70;0.60;;;;;;;3.88;74.94;92509.13;4331966;32;20300;-60
2023/01/18 00:10:42;;;;;;;0.60;0.60;;;;;;;3.75;75.61;92503.03;4337283;32;20289;-60
2023/01/18 00:13:08;;;;;;;0.87;0.70;;;;;;;3.84;74.71;92508.22;4343935;32;20304;-70
2023/01/18 00:15:34;;;;;;;0.53;0.53;;;;;;;3.93;74.10;92501.84;4347502;32;20278;-60
2023/01/18 00:18:00;;;;;;;0.63;0.63;;;;;;;4.01;74.02;92502.84;4343432;32;20282;-60
2023/01/18 00:20:27;;;;;;;0.40;0.40;;;;;;;3.99;74.04;92499.78;4344482;32;20336;-61
2023/01/18 00:22:52;;;;;;;0.93;0.93;;;;;;;3.96;74.27;92497.78;4332058;32;20185;-61
2023/01/18 00:25:20;;;;;;;1.33;1.23;;;;;;;3.77;74.60;92500.87;4344572;32;20308;-61
2023/01/18 00:27:48;;;;;;;0.77;0.77;;;;;;;3.93;74.54;92491.34;4330501;32;20251;-60
2023/01/18 00:30:16;;;;;;;0.30;0.23;;;;;;;4.09;73.59;92496.78;4345206;32;20274;-60
2023/01/18 00:32:42;;;;;;;2.17;0.87;;;;;;;4.01;73.45;92493.13;4344089;32;20274;-60
2023/01/18 00:35:07;;;;;;;0.70;0.33;;;;;;;3.81;74.61;92486.03;4347384;32;20285;-60
2023/01/18 00:37:34;;;;;;;0.30;0.30;;;;;;;3.50;76.11;92488.31;4344622;32;20194;-60
2023/01/18 00:39:59;;;;;;;0.60;0.60;;;;;;;3.53;75.93;92492.91;4331902;32;20219;-60
2023/01/18 00:45:09;;;;;;;0.13;0.13;;;;;;;3.43;76.43;92486.19;4339977;32;20228;-60
2023/01/18 00:47:34;;;;;;;0.40;0.40;;;;;;;3.68;75.14;92480.00;4333922;32;20278;-60
2023/01/18 00:50:00;;;;;;;0.30;0.30;;;;;;;3.64;74.90;92483.56;4345321;32;20189;-60
2023/01/18 00:52:25;;;;;;;0.70;0.70;;;;;;;3.69;75.44;92475.50;4332195;32;20225;-61
2023/01/18 00:54:51;;;;;;;1.33;1.23;;;;;;;3.51;75.91;92489.84;4331539;32;20204;-61
2023/01/18 00:57:16;;;;;;;1.03;1.03;;;;;;;3.64;75.57;92483.56;4344829;32;20216;-60
2023/01/18 00:59:41;;;;;;;0.27;0.27;;;;;;;3.73;75.12;92476.41;4331705;32;20201;-60
2023/01/18 01:02:07;;;;;;;0.30;0.30;;;;;;;3.61;75.19;92473.72;4332862;32;20224;-60
2023/01/18 01:07:16;;;;;;;0.40;0.40;;;;;;;3.50;75.90;92489.06;4334393;32;20208;-60
2023/01/18 01:09:43;;;;;;;0.40;0.40;;;;;;;3.38;76.91;92479.25;4344795;32;20326;-60
2023/01/18 01:26:08;;;;;;;0.60;0.60;;;;;;;3.49;75.33;92494.63;4343064;32;20300;-60
2023/01/18 01:28:34;;;;;;;0.43;0.43;;;;;;;3.31;76.55;92497.34;4345055;32;20273;-60
2023/01/18 01:31:01;;;;;;;3.40;0.47;;;;;;;3.37;76.59;92493.44;4343032;32;20301;-61
2023/01/18 01:33:28;;;;;;;0.60;0.60;;;;;;;3.50;75.80;92496.94;4333007;32;20296;-60
2023/01/18 01:35:55;;;;;;;0.20;0.20;;;;;;;3.32;76.43;92495.50;4334027;32;20305;-60
2023/01/18 01:38:21;;;;;;;0.20;0.20;;;;;;;3.32;76.58;92498.91;4330182;32;20290;-60
2023/01/18 01:40:55;;;;;;;0.50;0.50;;;;;;;3.56;75.22;92508.72;4330525;32;20277;-60
2023/01/18 01:43:43;;;;;;;0.40;0.40;;;;;;;3.48;75.52;92509.56;4328938;32;20193;-60
2023/01/18 01:46:21;;;;;;;0.30;0.30;;;;;;;3.27;76.68;92512.16;4337961;32;20297;-60
2023/01/18 01:48:47;;;;;;;0.43;0.43;;;;;;;2.90;77.82;92518.22;4330317;32;20282;-60
2023/01/18 01:51:17;;;;;;;0.30;0.30;;;;;;;2.57;79.14;92524.00;4328950;32;20307;-60
2023/01/18 01:53:45;;;;;;;1.30;0.40;;;;;;;2.69;79.40;92520.75;4344426;32;20247;-60
2023/01/18 01:56:11;;;;;;;0.50;0.50;;;;;;;2.17;80.72;92533.94;4344485;32;20274;-60
2023/01/18 01:58:38;;;;;;;0.30;0.30;;;;;;;2.40;80.48;92532.66;4332514;32;20269;-60
2023/01/18 02:01:03;;;;;;;0.33;0.33;;;;;;;2.10;80.87;92538.84;4341266;32;20194;-60
2023/01/18 02:03:30;;;;;;;0.10;0.10;;;;;;;1.98;81.85;92552.56;4343203;32;20296;-60
2023/01/18 02:06:04;;;;;;;0.40;0.40;;;;;;;2.02;81.58;92548.25;4339219;32;20216;-60
2023/01/18 02:08:29;;;;;;;0.30;0.30;;;;;;;2.26;81.56;92554.84;4328366;32;20279;-59
2023/01/18 02:10:55;;;;;;;0.20;0.20;;;;;;;2.46;80.54;92556.06;4339492;32;20292;-61
2023/01/18 02:13:22;;;;;;;0.93;0.63;;;;;;;2.62;79.13;92552.63;4342395;32;20204;-60
2023/01/18 02:15:50;;;;;;;0.50;0.50;;;;;;;2.69;78.70;92552.16;4342746;32;20201;-60
2023/01/18 02:18:33;;;;;;;0.40;0.40;;;;;;;2.78;78.21;92567.81;4329623;32;20366;-60
2023/01/18 02:21:15;;;;;;;1.17;1.17;;;;;;;2.81;78.06;92557.50;4344532;32;20407;-59
2023/01/18 02:23:59;;;;;;;0.37;0.37;;;;;;;2.87;77.31;92564.09;4342387;32;20326;-60
2023/01/18 02:26:55;;;;;;;0.10;0.10;;;;;;;3.04;76.58;92568.50;4343637;32;20312;-61
2023/01/18 02:29:42;;;;;;;0.33;0.33;;;;;;;2.76;77.87;92581.97;4344195;32;20363;-60
2023/01/18 02:32:40;;;;;;;9.33;0.80;;;;;;;2.87;77.28;92576.41;4337076;32;20297;-59
2023/01/18 02:35:08;;;;;;;0.27;0.27;;;;;;;3.02;77.08;92581.91;4340329;32;20290;-60
2023/01/18 02:37:43;;;;;;;0.30;0.30;;;;;;;3.19;75.50;92578.44;4343130;32;20305;-61
2023/01/18 02:40:13;;;;;;;2.70;0.43;;;;;;;3.34;75.17;92582.38;4340923;32;20303;-62
2023/01/18 02:48:21;;;;;;;0.20;0.20;;;;;;;3.59;74.62;92593.81;4339959;32;20293;-61
2023/01/18 02:50:47;;;;;;;0.10;0.10;;;;;;;3.65;74.33;92589.94;4339661;32;20359;-61
2023/01/18 02:53:15;;;;;;;0.27;0.27;;;;;;;3.60;74.71;92592.72;4328085;32;20373;-60
2023/01/18 02:56:02;;;;;;;0.43;0.43;;;;;;;3.79;74.00;92593.84;4340893;32;20189;-60
2023/01/18 02:58:37;;;;;;;0.63;0.63;;;;;;;3.66;74.39;92594.09;4336976;32;20337;-61
2023/01/18 03:01:14;;;;;;;0.13;0.13;;;;;;;3.82;74.15;92589.06;4322565;32;20334;-60
2023/01/18 03:03:43;;;;;;;0.10;0.10;;;;;;;3.84;74.19;92587.66;4341636;32;20303;-61
2023/01/18 03:06:08;;;;;;;0.40;0.40;;;;;;;3.85;74.06;92583.94;4344184;32;20282;-61
2023/01/18 03:08:37;;;;;;;0.50;0.17;;;;;;;4.03;73.18;92585.37;4341367;32;20304;-60
2023/01/18 03:11:13;;;;;;;0.30;0.30;;;;;;;4.11;72.79;92589.03;4341482;32;20215;-61
2023/01/18 03:14:06;;;;;;;0.10;0.10;;;;;;;4.23;72.60;92588.31;4339303;32;20278;-61
2023/01/18 03:17:05;;;;;;;0.07;0.07;;;;;;;4.25;72.02;92589.53;4330507;32;20322;-60
2023/01/18 03:25:21;;;;;;;0.00;0.00;;;;;;;4.22;70.91;92594.63;4329698;32;20293;-61
2023/01/18 03:36:15;;;;;;;0.50;0.50;;;;;;;4.33;69.70;92593.16;4342750;32;20319;-60
2023/01/18 03:38:43;;;;;;;0.00;0.00;;;;;;;4.25;69.78;92591.38;4339919;32;20281;-60
2023/01/18 03:41:11;;;;;;;0.30;0.30;;;;;;;4.31;69.00;92596.12;4329062;32;20304;-71
2023/01/18 03:43:40;;;;;;;0.03;0.03;;;;;;;4.33;68.86;92601.03;4329805;33;20308;-60
2023/01/18 03:46:06;;;;;;;0.00;0.00;;;;;;;4.29;68.45;92603.53;4325368;33;20286;-60
2023/01/18 03:48:35;;;;;;;0.40;0.40;;;;;;;4.24;68.75;92601.09;4322802;32;20297;-60
2023/01/18 03:51:17;;;;;;;0.40;0.40;;;;;;;4.03;69.25;92605.56;4339827;32;20282;-59
2023/01/18 03:54:08;;;;;;;0.00;0.00;;;;;;;4.10;69.61;92598.75;4319679;33;20309;-60
2023/01/18 03:56:55;;;;;;;0.27;0.27;;;;;;;4.10;69.54;92613.72;4318503;32;20320;-61
2023/01/18 03:59:22;;;;;;;0.10;0.10;;;;;;;4.04;69.41;92614.97;4329294;32;20281;-60
2023/01/18 04:01:48;;;;;;;0.23;0.23;;;;;;;3.88;70.56;92614.00;4328806;33;20346;-60
2023/01/18 04:04:14;;;;;;;0.20;0.20;;;;;;;3.81;71.13;92614.50;4340699;32;20364;-60
2023/01/18 04:06:40;;;;;;;0.10;0.10;;;;;;;3.91;70.05;92611.53;4328432;32;20309;-61
2023/01/18 04:09:07;;;;;;;0.27;0.27;;;;;;;3.74;70.67;92607.13;4330725;33;20235;-60
2023/01/18 04:11:32;;;;;;;0.10;0.10;;;;;;;3.88;70.62;92616.63;4319281;32;20204;-60
2023/01/18 04:13:57;;;;;;;0.13;0.13;;;;;;;3.81;70.60;92614.50;4317861;33;20294;-60
2023/01/18 04:16:23;;;;;;;0.20;0.20;;;;;;;3.77;70.67;92613.59;4320479;33;20281;-60
2023/01/18 04:18:48;;;;;;;0.63;0.50;;;;;;;3.77;70.54;92618.84;4327335;32;20205;-61
2023/01/18 04:21:13;;;;;;;0.10;0.10;;;;;;;3.91;70.82;92614.16;4320942;33;20190;-60
2023/01/18 04:23:38;;;;;;;0.10;0.10;;;;;;;3.71;70.60;92604.41;4324739;33;20186;-70
2023/01/18 04:26:04;;;;;;;0.20;0.20;;;;;;;3.86;70.71;92601.22;4316402;33;20201;-60
2023/01/18 04:28:29;;;;;;;0.20;0.20;;;;;;;3.74;70.91;92603.78;4326157;33;20247;-60
2023/01/18 04:30:56;;;;;;;7.83;1.23;;;;;;;3.77;70.97;92592.63;4326353;33;20224;-59
2023/01/18 04:33:22;;;;;;;0.20;0.20;;;;;;;3.75;71.43;92598.19;4330984;32;20181;-60
2023/01/18 04:35:49;;;;;;;0.00;0.00;;;;;;;3.80;71.34;92586.75;4316307;33;20325;-60
2023/01/18 04:38:15;;;;;;;1.03;0.27;;;;;;;3.63;71.52;92592.87;4323484;32;20293;-61
2023/01/18 04:40:41;;;;;;;0.40;0.40;;;;;;;3.88;70.71;92587.78;4318334;33;20283;-60
2023/01/18 04:43:06;;;;;;;0.40;0.40;;;;;;;3.88;70.38;92583.31;4321718;32;20305;-60
2023/01/18 04:45:31;;;;;;;0.10;0.10;;;;;;;3.82;70.78;92579.34;4315434;32;20194;-60
2023/01/18 04:47:57;;;;;;;0.00;0.00;;;;;;;3.95;70.41;92578.31;4330017;33;20193;-60
2023/01/18 04:50:22;;;;;;;0.10;0.00;;;;;;;3.84;70.86;92581.66;4325681;32;20223;-59
2023/01/18 04:52:48;;;;;;;0.30;0.30;;;;;;;3.71;71.01;92584.19;4329885;32;20212;-60
2023/01/18 04:55:14;;;;;;;0.10;0.10;;;;;;;3.61;71.72;92591.66;4318993;33;20190;-59
2023/01/18 04:57:41;;;;;;;0.07;0.07;;;;;;;3.90;70.68;92581.16;4327907;32;20225;-61
2023/01/18 05:00:07;;;;;;;0.10;0.10;;;;;;;3.73;70.74;92591.75;4331885;32;20314;-60
2023/01/18 05:02:33;;;;;;;0.67;0.67;;;;;;;3.62;70.52;92595.81;4334317;32;20286;-60
2023/01/18 05:04:58;;;;;;;0.23;0.23;;;;;;;3.80;70.16;92603.25;4330040;32;20428;-59
2023/01/18 05:07:24;;;;;;;0.00;0.00;;;;;;;3.87;69.32;92594.88;4318311;33;20203;-60
2023/01/18 05:09:50;;;;;;;2.67;0.40;;;;;;;3.76;68.69;92601.56;4330189;32;20201;-60
2023/01/18 05:12:15;;;;;;;0.00;0.00;;;;;;;3.70;68.87;92602.88;4316668;33;20362;-60
2023/01/18 05:14:41;;;;;;;0.20;0.20;;;;;;;3.67;69.21;92606.13;4342246;32;20220;-59
2023/01/18 05:17:06;;;;;;;0.27;0.27;;;;;;;3.73;68.83;92603.00;4318786;32;20193;-59
2023/01/18 05:19:32;;;;;;;0.10;0.10;;;;;;;3.90;68.53;92610.00;4330997;32;20218;-60
2023/01/18 05:21:57;;;;;;;0.00;0.00;;;;;;;3.93;67.98;92614.59;4344588;32;20189;-60
2023/01/18 05:24:22;;;;;;;0.30;0.30;;;;;;;3.98;67.80;92614.41;4340797;32;20245;-60
2023/01/18 05:26:48;;;;;;;0.37;0.10;;;;;;;3.95;67.68;92615.03;4331991;32;20212;-60
2023/01/18 05:29:13;;;;;;;0.00;0.00;;;;;;;3.89;67.79;92624.19;4336223;32;20205;-60
2023/01/18 05:31:38;;;;;;;0.50;0.50;;;;;;;3.95;68.00;92630.75;4321344;33;20200;-60
2023/01/18 05:34:04;;;;;;;0.10;0.10;;;;;;;3.93;68.29;92622.47;4320185;32;20189;-60
2023/01/18 05:36:30;;;;;;;0.37;0.10;;;;;;;3.90;68.54;92627.56;4332512;32;20312;-60
2023/01/18 05:38:55;;;;;;;0.07;0.07;;;;;;;3.89;69.33;92632.06;4335519;32;20295;-60
2023/01/18 05:41:21;;;;;;;0.33;0.33;;;;;;;4.01;68.59;92634.75;4312606;33;20212;-60
2023/01/18 05:43:46;;;;;;;0.20;0.20;;;;;;;3.90;68.83;92633.59;4331482;32;20298;-60
2023/01/18 05:46:11;;;;;;;0.20;0.20;;;;;;;3.83;69.26;92627.31;4327334;32;20194;-60
2023/01/18 05:48:37;;;;;;;0.63;0.63;;;;;;;3.70;70.39;92632.47;4331790;32;20177;-60
2023/01/18 05:51:08;;;;;;;0.10;0.10;;;;;;;3.79;70.10;92630.56;4331598;32;20229;-60
2023/01/18 05:53:33;;;;;;;0.03;0.03;;;;;;;3.86;70.17;92637.16;4315393;33;20181;-60
2023/01/18 05:56:01;;;;;;;0.30;0.30;;;;;;;3.95;69.87;92649.12;4328386;32;20372;-60
2023/01/18 05:58:27;;;;;;;0.07;0.07;;;;;;;3.91;69.14;92648.25;4329851;32;20177;-60
2023/01/18 06:00:54;;;;;;;0.27;0.27;;;;;;;3.94;69.23;92650.22;4333247;32;20302;-59
2023/01/18 06:03:20;;;;;;;0.30;0.30;;;;;;;3.91;69.05;92644.84;4341018;32;20290;-60
2023/01/18 06:05:50;;;;;;;0.07;0.07;;;;;;;3.90;68.78;92654.56;4326414;32;20282;-60
2023/01/18 06:08:16;;;;;;;0.77;0.47;;;;;;;3.79;69.31;92664.62;4323173;32;20332;-60
2023/01/18 06:10:42;;;;;;;0.37;0.37;;;;;;;3.86;69.38;92669.37;4314818;32;20278;-60
2023/01/18 06:13:11;;;;;;;0.20;0.20;;;;;;;3.94;69.01;92670.44;4342913;32;20200;-60
2023/01/18 06:15:36;;;;;;;0.20;0.20;;;;;;;3.99;68.72;92678.88;4342378;32;20277;-60
2023/01/18 06:18:01;;;;;;;1.20;0.23;;;;;;;3.90;68.84;92678.16;4340317;32;20274;-60
2023/01/18 06:20:29;;;;;;;0.40;0.40;;;;;;;3.97;69.05;92681.03;4328453;32;20265;-60
2023/01/18 06:22:56;;;;;;;1.83;0.27;;;;;;;3.75;69.57;92689.16;4341857;32;20185;-61
2023/01/18 06:25:22;;;;;;;0.30;0.30;;;;;;;3.78;69.98;92699.03;4334553;32;20348;-61
2023/01/18 06:27:47;;;;;;;0.50;0.40;;;;;;;3.88;69.27;92700.53;4325115;32;20286;-60
2023/01/18 06:30:13;;;;;;;0.33;0.33;;;;;;;3.89;69.99;92704.69;4308350;32;20208;-60
2023/01/18 06:32:41;;;;;;;0.27;0.27;;;;;;;3.70;69.51;92703.25;4332306;32;20211;-60
2023/01/18 06:35:06;;;;;;;0.30;0.30;;;;;;;3.89;69.07;92715.97;4331289;32;20240;-60
2023/01/18 06:37:33;;;;;;;0.23;0.23;;;;;;;4.01;69.16;92704.78;4342654;32;20282;-61
2023/01/18 06:39:58;;;;;;;0.43;0.43;;;;;;;4.02;68.87;92704.47;4320650;32;20223;-60
2023/01/18 06:42:25;;;;;;;0.10;0.10;;;;;;;4.05;68.91;92710.94;4320086;32;20290;-60
2023/01/18 06:44:50;;;;;;;0.43;0.43;;;;;;;4.05;68.89;92716.94;4343611;32;20193;-60
2023/01/18 06:47:18;;;;;;;0.23;0.23;;;;;;;3.99;68.81;92715.59;4341932;32;20297;-60
2023/01/18 06:49:47;;;;;;;0.17;0.17;;;;;;;3.83;69.55;92709.34;4326814;32;20200;-60
2023/01/18 06:52:14;;;;;;;0.33;0.33;;;;;;;3.90;70.05;92717.50;4338050;32;20293;-60
2023/01/18 06:54:41;;;;;;;0.10;0.10;;;;;;;3.96;69.37;92713.59;4326645;32;20285;-64
2023/01/18 06:57:07;;;;;;;1.27;1.23;;;;;;;3.91;69.47;92723.50;4329128;32;20289;-59
2023/01/18 06:59:33;;;;;;;0.83;0.80;;;;;;;4.97;87.58;92724.06;4328172;32;20285;-51
2023/01/18 07:01:59;;;;;;;0.30;0.30;;;;;;;5.27;82.96;92717.59;4341971;32;20289;-60
2023/01/18 07:04:24;;;;;;;0.50;0.50;;;;;;;5.56;74.57;92721.94;4342845;32;20286;-60
2023/01/18 07:06:49;;;;;;;0.47;0.47;;;;;;;5.62;73.33;92725.13;4327263;32;20315;-60
2023/01/18 07:09:15;;;;;;;0.33;0.33;;;;;;;5.76;69.61;92731.63;4343585;32;20360;-59
2023/01/18 07:11:42;;;;;;;0.63;0.63;;;;;;;6.39;76.51;92726.06;4331546;32;20225;-60
2023/01/18 07:14:10;;;;;;;0.23;0.23;;;;;;;6.46;72.87;92727.03;4343434;32;20208;-59
2023/01/18 07:16:37;;;;;;;0.30;0.30;;;;;;;6.52;67.26;92738.13;4340759;32;20273;-60
2023/01/18 07:19:03;;;;;;;1.03;0.50;;;;;;;6.77;71.19;92734.34;4334547;32;20292;-60
2023/01/18 07:21:29;;;;;;;0.40;0.40;;;;;;;6.75;69.74;92747.09;4329565;32;20373;-59
2023/01/18 07:23:56;;;;;;;0.43;0.43;;;;;;;6.72;67.23;92753.00;4323360;32;20274;-59
2023/01/18 07:26:22;;;;;;;0.47;0.40;;;;;;;6.48;64.90;92753.03;4329917;32;20177;-59
2023/01/18 07:28:48;;;;;;;0.80;0.80;;;;;;;6.47;69.27;92756.78;4342977;32;20320;-59
2023/01/18 07:31:16;;;;;;;0.37;0.37;;;;;;;5.79;62.56;92761.78;4319753;32;20286;-59
2023/01/18 07:33:43;;;;;;;0.30;0.30;;;;;;;5.34;63.84;92767.00;4341733;32;20193;-58
2023/01/18 07:36:09;;;;;;;1.20;1.03;;;;;;;4.71;66.00;92771.53;4331747;32;20285;-59
2023/01/18 07:38:43;;;;;;;1.13;0.40;;;;;;;4.72;66.01;92780.94;4295769;32;20329;-59
2023/01/18 07:41:25;;;;;;;0.00;0.00;;;;;;;4.51;66.61;92785.41;4088193;32;20296;-59
2023/01/18 07:43:51;;;;;;;0.37;0.37;;;;;;;4.30;67.66;92786.12;4178097;32;20298;-58
2023/01/18 07:46:20;;;;;;;0.17;0.17;;;;;;;4.36;67.78;92781.47;4310331;32;20297;-59
2023/01/18 07:48:49;;;;;;;0.40;0.40;;;;;;;4.12;68.57;92793.31;4329288;32;20189;-59
2023/01/18 07:51:15;;;;;;;0.23;0.23;;;;;;;4.08;68.67;92795.00;4342491;32;20293;-59
2023/01/18 07:53:41;;;;;;;0.20;0.20;;;;;;;3.95;69.39;92793.34;4341977;32;20293;-59
2023/01/18 07:56:10;;;;;;;0.10;0.10;;;;;;;4.13;68.59;92799.31;4344118;32;20304;-59
2023/01/18 07:58:36;;;;;;;0.20;0.20;;;;;;;3.99;69.57;92799.50;4332635;32;20181;-59
2023/01/18 08:01:07;;;;;;;0.37;0.30;;;;;;;3.96;69.60;92810.62;4328500;32;20296;-59
2023/01/18 08:03:34;;;;;;;0.10;0.10;;;;;;;4.30;69.20;92804.50;4320514;32;20278;-59
2023/01/18 08:06:01;;;;;;;0.17;0.17;;;;;;;4.29;68.84;92812.69;4329508;32;20300;-58
2023/01/18 08:08:28;;;;;;;0.30;0.30;;;;;;;4.07;69.76;92827.56;4343906;32;20313;-59
2023/01/18 08:10:55;;;;;;;0.10;0.10;;;;;;;4.20;70.14;92814.56;4345459;32;20306;-59
2023/01/18 08:13:21;;;;;;;0.70;0.70;;;;;;;4.20;70.11;92833.69;4331692;32;20290;-59
2023/01/18 08:15:46;;;;;;;0.83;0.83;;;;;;;4.32;69.46;92833.81;4316906;33;20328;-58
2023/01/18 08:18:13;;;;;;;0.13;0.13;;;;;;;4.63;68.63;92828.25;4314931;33;20316;-58
2023/01/18 08:20:41;;;;;;;0.30;0.30;;;;;;;4.48;68.90;92826.16;4317508;33;20219;-58
2023/01/18 08:23:06;;;;;;;0.47;0.47;;;;;;;4.63;68.66;92830.88;4312210;33;20370;-59
2023/01/18 08:25:32;;;;;;;0.30;0.30;;;;;;;4.49;69.04;92833.72;4316852;32;20281;-59
2023/01/18 08:28:01;;;;;;;0.40;0.40;;;;;;;4.49;69.32;92827.72;4334929;32;20225;-59
2023/01/18 08:30:30;;;;;;;0.13;0.13;;;;;;;4.57;68.40;92837.41;4319828;33;20229;-59
2023/01/18 08:32:57;;;;;;;0.33;0.33;;;;;;;4.45;69.23;92848.56;4330465;33;20283;-58
2023/01/18 08:35:24;;;;;;;0.40;0.33;;;;;;;4.31;69.29;92857.75;4330226;33;20369;-58
2023/01/18 08:37:51;;;;;;;0.10;0.10;;;;;;;4.49;69.10;92853.94;4308456;33;20275;-58
2023/01/18 08:40:20;;;;;;;0.30;0.30;;;;;;;4.49;68.52;92864.44;4314231;33;20325;-59
2023/01/18 08:42:46;;;;;;;0.30;0.30;;;;;;;4.69;67.89;92858.50;4324718;32;20353;-58
2023/01/18 08:45:12;;;;;;;0.30;0.30;;;;;;;4.28;68.72;92868.84;4332727;32;20287;-59
2023/01/18 08:47:39;;;;;;;0.40;0.30;;;;;;;4.52;68.15;92878.81;4318586;33;20286;-59
2023/01/18 08:50:04;;;;;;;0.77;0.30;;;;;;;4.44;68.14;92883.00;4317006;33;20274;-58
2023/01/18 08:52:30;;;;;;;0.00;0.00;;;;;;;4.58;67.70;92886.16;4329674;33;20286;-59
2023/01/18 08:54:55;;;;;;;0.10;0.10;;;;;;;4.63;66.90;92893.09;4325563;33;20213;-58
2023/01/18 08:57:22;;;;;;;0.23;0.23;;;;;;;4.71;67.25;92908.06;4316739;33;20245;-58
2023/01/18 08:59:47;;;;;;;0.10;0.10;;;;;;;4.80;66.47;92909.53;4330167;33;20245;-58
2023/01/18 09:02:13;;;;;;;0.20;0.20;;;;;;;4.83;66.07;92910.78;4328153;33;20282;-58
2023/01/18 09:04:38;;;;;;;0.10;0.10;;;;;;;4.98;65.66;92912.09;4332298;33;20197;-58
2023/01/18 09:07:03;;;;;;;1.20;0.67;;;;;;;5.12;65.71;92917.91;4315858;33;20216;-58
2023/01/18 09:09:29;;;;;;;0.33;0.33;;;;;;;5.02;66.49;92920.87;4323312;33;20300;-58
2023/01/18 09:11:56;;;;;;;1.30;0.37;;;;;;;4.82;66.44;92919.75;4341500;32;20228;-59
2023/01/18 09:14:21;;;;;;;0.13;0.13;;;;;;;4.96;65.91;92922.94;4321985;33;20234;-58
2023/01/18 09:16:46;;;;;;;0.17;0.17;;;;;;;5.20;65.01;92921.56;4339129;32;20302;-58
2023/01/18 09:19:12;;;;;;;0.33;0.33;;;;;;;5.31;64.30;92925.34;4323793;32;20211;-58
2023/01/18 09:21:39;;;;;;;0.30;0.30;;;;;;;5.38;64.57;92923.00;4322267;32;20269;-58
2023/01/18 09:24:06;;;;;;;0.47;0.47;;;;;;;5.29;64.33;92938.81;4331705;32;20286;-59
2023/01/18 09:26:31;;;;;;;0.00;0.00;;;;;;;5.10;64.62;92946.34;4343656;32;20332;-58
2023/01/18 09:28:57;;;;;;;0.20;0.20;;;;;;;5.13;64.91;92961.47;4343645;32;20310;-58
2023/01/18 09:31:24;;;;;;;0.10;0.10;;;;;;;5.23;65.13;92965.59;4343979;32;20185;-58
2023/01/18 09:33:50;;;;;;;0.53;0.17;;;;;;;5.24;65.53;92967.13;4342660;32;20209;-58
2023/01/18 09:36:16;;;;;;;0.33;0.33;;;;;;;5.05;65.28;92976.19;4329754;32;20296;-59
2023/01/18 09:38:43;;;;;;;0.20;0.20;;;;;;;5.35;65.26;92969.09;4344063;32;20201;-58
2023/01/18 09:41:30;;;;;;;0.00;0.00;;;;;;;5.28;65.10;92973.28;4332669;32;20337;-58
2023/01/18 09:44:00;;;;;;;0.30;0.30;;;;;;;5.38;64.93;92976.34;4330271;32;20294;-57
2023/01/18 09:46:26;;;;;;;0.53;0.50;;;;;;;5.45;64.76;92973.97;4330581;32;20324;-58
2023/01/18 09:48:58;;;;;;;0.23;0.23;;;;;;;5.27;65.37;92980.41;4330314;32;20312;-57
2023/01/18 09:51:47;;;;;;;0.07;0.07;;;;;;;5.48;66.09;92983.84;4344300;32;20282;-60
2023/01/18 09:54:42;;;;;;;0.10;0.10;;;;;;;5.45;64.53;92989.72;4340474;32;20293;-61
2023/01/18 09:57:36;;;;;;;1.53;0.50;;;;;;;5.39;65.40;92990.25;4323772;32;20328;-61
2023/01/18 10:00:06;;;;;;;0.27;0.27;;;;;;;5.33;65.25;92994.91;4316727;32;20282;-61
2023/01/18 10:02:38;;;;;;;0.40;0.40;;;;;;;5.37;64.53;93006.34;4339249;32;20278;-60
2023/01/18 10:05:15;;;;;;;0.27;0.27;;;;;;;5.27;65.74;93022.47;4328366;32;20279;-60
2023/01/18 10:07:50;;;;;;;0.20;0.20;;;;;;;5.32;65.32;93011.00;4328719;32;20281;-57
2023/01/18 10:10:17;;;;;;;0.40;0.40;;;;;;;5.41;65.86;93025.63;4328766;33;20278;-59
2023/01/18 10:12:50;;;;;;;0.60;0.60;;;;;;;5.50;67.45;93023.72;4338129;32;20282;-57
2023/01/18 10:15:21;;;;;;;0.10;0.10;;;;;;;5.54;66.17;93037.03;4333321;32;20324;-58
2023/01/18 10:17:48;;;;;;;0.10;0.10;;;;;;;5.61;66.37;93039.16;4343248;32;20296;-58
2023/01/18 10:20:19;;;;;;;0.20;0.20;;;;;;;5.48;66.43;93033.78;4327327;33;20278;-57
2023/01/18 10:22:52;;;;;;;0.30;0.30;;;;;;;5.63;65.89;93044.84;4322455;32;20339;-58
2023/01/18 10:25:41;;;;;;;0.10;0.10;;;;;;;5.65;64.59;93055.81;4343666;32;20345;-58
2023/01/18 10:28:24;;;;;;;0.07;0.07;;;;;;;5.58;65.04;93064.22;4325708;32;20316;-58
2023/01/18 10:31:05;;;;;;;0.23;0.23;;;;;;;5.45;64.45;93059.94;4332291;32;20356;-58
2023/01/18 10:33:39;;;;;;;0.20;0.20;;;;;;;5.32;65.58;93066.97;4342113;32;20368;-58
2023/01/18 10:36:19;;;;;;;0.10;0.10;;;;;;;5.30;65.91;93065.75;4330500;32;20297;-58
2023/01/18 10:38:46;;;;;;;0.10;0.10;;;;;;;5.46;66.01;93067.50;4342556;32;20282;-58
2023/01/18 10:41:36;;;;;;;0.37;0.37;;;;;;;5.44;65.59;93072.31;4329917;32;20277;-58
2023/01/18 10:44:02;;;;;;;0.10;0.10;;;;;;;5.20;66.43;93068.72;4323825;32;20282;-58
2023/01/18 10:46:27;;;;;;;0.40;0.40;;;;;;;5.51;64.81;93080.50;4343301;32;20317;-58
2023/01/18 10:48:55;;;;;;;0.23;0.23;;;;;;;5.35;65.30;93073.47;4328214;32;20194;-58
2023/01/18 10:51:27;;;;;;;0.10;0.10;;;;;;;5.75;64.02;93077.28;4319661;33;20201;-58
2023/01/18 10:53:53;;;;;;;0.30;0.30;;;;;;;5.62;64.72;93082.75;4322314;32;20285;-58
2023/01/18 10:56:23;;;;;;;0.10;0.10;;;;;;;5.67;64.81;93093.09;4329185;32;20300;-58
2023/01/18 10:58:56;;;;;;;0.10;0.10;;;;;;;5.58;66.32;93097.66;4341148;32;20243;-58
2023/01/18 11:01:51;;;;;;;0.10;0.10;;;;;;;5.20;66.33;93098.38;4340699;32;20312;-58
2023/01/18 11:04:23;;;;;;;0.10;0.10;;;;;;;5.15;65.27;93101.19;4342170;32;20274;-58
2023/01/18 11:06:55;;;;;;;0.17;0.17;;;;;;;4.91;65.68;93101.72;4333015;32;20297;-58
2023/01/18 11:09:38;;;;;;;0.23;0.23;;;;;;;5.23;64.73;93110.91;4342835;32;20286;-58
2023/01/18 11:12:37;;;;;;;2.43;0.30;;;;;;;5.32;63.98;93119.53;4335537;32;20349;-58
2023/01/18 11:15:12;;;;;;;0.10;0.10;;;;;;;5.14;65.08;93118.06;4323844;33;20354;-58
2023/01/18 11:17:37;;;;;;;0.10;0.10;;;;;;;5.13;64.68;93119.13;4317965;33;20312;-58
2023/01/18 11:20:28;;;;;;;0.20;0.20;;;;;;;5.04;64.85;93131.50;4328039;33;20286;-57
2023/01/18 11:23:03;;;;;;;0.00;0.00;;;;;;;4.89;65.10;93134.63;4303790;33;20198;-57
2023/01/18 11:25:37;;;;;;;0.30;0.30;;;;;;;4.71;65.38;93144.38;4304871;33;20352;-58
2023/01/18 11:28:06;;;;;;;0.30;0.30;;;;;;;4.94;64.99;93137.09;4327329;33;20340;-58
2023/01/18 11:30:32;;;;;;;0.00;0.00;;;;;;;5.06;nan;93142.47;4314618;33;20294;-58
2023/01/18 11:32:58;;;;;;;0.00;0.00;;;;;;;4.98;65.10;93132.78;4328410;33;20322;-60
2023/01/18 11:35:33;;;;;;;0.00;0.00;;;;;;;5.12;64.61;93133.34;4315090;33;20333;-60
2023/01/18 11:38:07;;;;;;;0.00;0.00;;;;;;;4.95;65.00;93143.91;4326898;33;20300;-61
2023/01/18 11:40:33;;;;;;;0.00;0.00;;;;;;;4.96;64.84;93140.19;4330601;33;20283;-60
2023/01/18 11:43:03;;;;;;;0.30;0.30;;;;;;;5.06;65.78;93153.00;4325980;33;20286;-60
2023/01/18 11:45:34;;;;;;;0.43;0.13;;;;;;;4.99;64.78;93148.19;4316417;33;20376;-58
2023/01/18 11:48:11;;;;;;;0.23;0.23;;;;;;;5.08;64.72;93148.19;4319649;33;20381;-58
2023/01/18 11:50:43;;;;;;;0.10;0.10;;;;;;;4.84;65.89;93154.72;4319618;33;20302;-58
2023/01/18 11:53:22;;;;;;;0.50;0.50;;;;;;;4.78;65.83;93165.72;4332542;33;20297;-58
2023/01/18 11:55:54;;;;;;;0.27;0.27;;;;;;;4.73;65.30;93171.13;4329541;32;20332;-59
2023/01/18 11:58:28;;;;;;;0.10;0.10;;;;;;;4.63;65.90;93174.03;4322037;33;20274;-58
2023/01/18 12:01:05;;;;;;;1.13;0.97;;;;;;;4.61;66.70;93174.34;4331736;33;20282;-58
2023/01/18 12:03:48;;;;;;;0.10;0.10;;;;;;;4.53;66.25;93183.00;4309896;33;20365;-60
2023/01/18 12:06:35;;;;;;;0.23;0.23;;;;;;;4.40;67.01;93186.53;4320064;33;20296;-57
2023/01/18 12:09:18;;;;;;;0.00;0.00;;;;;;;4.47;66.13;93195.50;4316617;33;20275;-66
2023/01/18 12:12:09;;;;;;;0.20;0.20;;;;;;;4.43;65.84;93196.41;4279616;33;20287;-65
2023/01/18 12:15:00;;;;;;;0.40;0.40;;;;;;;4.35;65.35;93194.56;4330868;32;20361;-65
2023/01/18 12:17:42;;;;;;;0.10;0.10;;;;;;;4.47;65.74;93202.59;4294921;32;20276;-65
2023/01/18 12:20:28;;;;;;;0.10;0.10;;;;;;;4.58;66.32;93198.59;4338754;32;20289;-65
2023/01/18 12:23:14;;;;;;;0.23;0.23;;;;;;;4.73;64.76;93205.25;4345616;32;20372;-65
2023/01/18 12:26:11;;;;;;;0.27;0.27;;;;;;;4.58;64.43;93218.81;4342582;32;20278;-65
2023/01/18 12:29:11;;;;;;;0.83;0.83;;;;;;;4.48;64.63;93219.91;4344073;32;20365;-65
2023/01/18 12:32:06;;;;;;;0.10;0.10;;;;;;;4.43;63.89;93233.94;4336216;32;20365;-65
2023/01/18 12:34:46;;;;;;;0.50;0.50;;;;;;;4.22;64.04;93232.19;4321828;32;20350;-65